Time;durP1;ratioP1;P1;durP2;ratioP2;P2;SDS_P1;SDS_P2;PMS_P1;PMS_P2;Temp;Humidity;BMP_temperature;BMP_pressure;BME280_temperature;BME280_humidity;BME280_pressure;Samples;Min_cycle;Max_cycle;Signal;HPM_P1;HPM_P2
2023/12/16 00:02:21;;;;;;;169.97;60.70;;;;;;;;;;4953639;28;20768;-43
2023/12/16 00:04:47;;;;;;;170.20;59.23;;;;;;;;;;4970436;28;20764;-43
2023/12/16 00:07:13;;;;;;;169.83;60.20;;;;;;;;;;4962188;28;20405;-43
2023/12/16 00:09:39;;;;;;;172.13;62.00;;;;;;;;;;4961892;28;20995;-44
2023/12/16 00:12:05;;;;;;;170.55;60.95;;;;;;;;;;4969798;28;20182;-44
2023/12/16 00:14:36;;;;;;;168.35;59.55;;;;;;;;;;4954565;28;20201;-43
2023/12/16 00:17:02;;;;;;;184.45;61.72;;;;;;;;;;4954769;28;20227;-43
2023/12/16 00:19:28;;;;;;;180.43;60.50;;;;;;;;;;4969750;28;20606;-44
2023/12/16 00:21:53;;;;;;;174.37;60.10;;;;;;;;;;4962085;28;20457;-43
2023/12/16 00:24:19;;;;;;;170.90;61.37;;;;;;;;;;4962031;28;20450;-42
2023/12/16 00:26:45;;;;;;;174.37;60.00;;;;;;;;;;4969588;28;20497;-42
2023/12/16 00:29:11;;;;;;;178.03;59.53;;;;;;;;;;4953967;28;20713;-43
2023/12/16 00:31:37;;;;;;;167.23;57.67;;;;;;;;;;4973244;28;20433;-43
2023/12/16 00:34:03;;;;;;;119.27;44.27;;;;;;;;;;4958116;28;20910;-43
2023/12/16 00:36:29;;;;;;;174.77;59.50;;;;;;;;;;4965256;28;20870;-44
2023/12/16 00:38:55;;;;;;;170.33;57.80;;;;;;;;;;4966008;28;20807;-43
2023/12/16 00:41:21;;;;;;;174.47;59.27;;;;;;;;;;4956561;28;20795;-43
2023/12/16 00:43:47;;;;;;;175.13;58.60;;;;;;;;;;4973342;28;20483;-43
2023/12/16 00:46:13;;;;;;;133.30;49.20;;;;;;;;;;4954433;28;20420;-43
2023/12/16 00:48:40;;;;;;;174.27;59.92;;;;;;;;;;4968312;28;20909;-43
2023/12/16 00:51:06;;;;;;;172.93;57.78;;;;;;;;;;4962314;28;20564;-43
2023/12/16 00:53:32;;;;;;;181.13;58.28;;;;;;;;;;4960647;28;20178;-43
2023/12/16 00:55:58;;;;;;;181.53;61.07;;;;;;;;;;4972535;28;20565;-43
2023/12/16 00:58:24;;;;;;;185.57;62.27;;;;;;;;;;4973070;28;20757;-43
2023/12/16 01:00:50;;;;;;;183.00;58.67;;;;;;;;;;4955020;28;20522;-43
2023/12/16 01:03:15;;;;;;;187.40;59.73;;;;;;;;;;4967840;28;20220;-44
2023/12/16 01:05:41;;;;;;;184.40;58.90;;;;;;;;;;4962693;28;20439;-43
2023/12/16 01:08:07;;;;;;;185.18;59.90;;;;;;;;;;4959878;28;20744;-43
2023/12/16 01:10:33;;;;;;;185.82;60.63;;;;;;;;;;4970221;28;20411;-43
2023/12/16 01:12:59;;;;;;;185.07;60.57;;;;;;;;;;4955519;28;20170;-43
2023/12/16 01:15:25;;;;;;;189.80;61.03;;;;;;;;;;4977831;28;20779;-43
2023/12/16 01:17:51;;;;;;;191.67;60.80;;;;;;;;;;4965756;28;20421;-43
2023/12/16 01:20:17;;;;;;;190.82;60.10;;;;;;;;;;4969172;28;20486;-43
2023/12/16 01:22:43;;;;;;;190.97;60.50;;;;;;;;;;4973567;28;20658;-43
2023/12/16 01:25:10;;;;;;;194.37;62.37;;;;;;;;;;4961352;28;20404;-43
2023/12/16 01:27:36;;;;;;;191.75;60.22;;;;;;;;;;4979376;28;20400;-44
2023/12/16 01:30:03;;;;;;;191.77;60.20;;;;;;;;;;4961654;28;20740;-44
2023/12/16 01:32:29;;;;;;;191.65;61.63;;;;;;;;;;4973223;28;20177;-43
2023/12/16 01:34:56;;;;;;;191.77;62.07;;;;;;;;;;4969777;28;20181;-43
2023/12/16 01:37:22;;;;;;;191.15;60.83;;;;;;;;;;4965295;28;20827;-43
2023/12/16 01:39:48;;;;;;;191.73;61.83;;;;;;;;;;4976637;28;20219;-43
2023/12/16 01:42:14;;;;;;;190.30;61.10;;;;;;;;;;4960716;28;20173;-42
2023/12/16 01:44:40;;;;;;;191.47;61.50;;;;;;;;;;4976932;28;20608;-43
2023/12/16 01:47:06;;;;;;;190.65;60.88;;;;;;;;;;4966308;28;20413;-43
2023/12/16 01:49:32;;;;;;;191.63;60.67;;;;;;;;;;4967437;28;20181;-43
2023/12/16 01:51:58;;;;;;;187.87;58.60;;;;;;;;;;4974079;28;20194;-43
2023/12/16 01:54:25;;;;;;;192.43;61.33;;;;;;;;;;4960990;28;20409;-43
2023/12/16 01:56:56;;;;;;;190.38;61.15;;;;;;;;;;4979544;28;20200;-44
2023/12/16 01:59:22;;;;;;;190.20;59.72;;;;;;;;;;4978443;28;20239;-43
2023/12/16 02:01:48;;;;;;;192.13;60.80;;;;;;;;;;4965282;28;20276;-43
2023/12/16 02:04:14;;;;;;;186.90;61.60;;;;;;;;;;4968660;28;20217;-43
2023/12/16 02:06:41;;;;;;;185.77;59.83;;;;;;;;;;4973540;28;20416;-43
2023/12/16 02:09:07;;;;;;;187.50;60.85;;;;;;;;;;4961206;28;20468;-43
2023/12/16 02:11:33;;;;;;;188.20;60.53;;;;;;;;;;4979096;28;20200;-43
2023/12/16 02:13:59;;;;;;;189.17;60.27;;;;;;;;;;4962303;28;20182;-43
2023/12/16 02:16:25;;;;;;;193.67;62.63;;;;;;;;;;4972494;28;20443;-43
2023/12/16 02:18:51;;;;;;;190.27;60.97;;;;;;;;;;4969860;28;20822;-43
2023/12/16 02:21:17;;;;;;;191.57;61.40;;;;;;;;;;4964538;28;20197;-43
2023/12/16 02:23:43;;;;;;;195.57;63.37;;;;;;;;;;4978011;28;20180;-42
2023/12/16 02:26:10;;;;;;;192.88;63.38;;;;;;;;;;4955732;28;20406;-43
2023/12/16 02:28:35;;;;;;;192.98;61.38;;;;;;;;;;4972628;28;20177;-43
2023/12/16 02:31:02;;;;;;;183.27;59.97;;;;;;;;;;4963470;28;20190;-43
2023/12/16 02:33:28;;;;;;;182.00;61.63;;;;;;;;;;4964721;28;20418;-43
2023/12/16 02:35:53;;;;;;;182.73;60.20;;;;;;;;;;4971300;28;20181;-43
2023/12/16 02:38:19;;;;;;;184.63;62.43;;;;;;;;;;4956600;28;20174;-43
2023/12/16 02:40:47;;;;;;;177.70;59.77;;;;;;;;;;4975282;28;20636;-42
2023/12/16 02:43:13;;;;;;;180.57;60.88;;;;;;;;;;4959458;28;20417;-44
2023/12/16 02:45:39;;;;;;;186.48;63.08;;;;;;;;;;4968114;28;20177;-43
2023/12/16 02:48:05;;;;;;;183.57;62.50;;;;;;;;;;4967549;28;20189;-44
2023/12/16 02:50:31;;;;;;;182.50;61.33;;;;;;;;;;4960018;28;20925;-43
2023/12/16 02:52:58;;;;;;;186.77;62.47;;;;;;;;;;4975563;28;20645;-43
2023/12/16 02:55:24;;;;;;;187.23;62.45;;;;;;;;;;4961767;28;20193;-43
2023/12/16 02:57:50;;;;;;;187.75;60.80;;;;;;;;;;4974958;28;20170;-43
2023/12/16 03:00:15;;;;;;;189.87;62.00;;;;;;;;;;4963225;28;20213;-43
2023/12/16 03:02:41;;;;;;;187.07;61.67;;;;;;;;;;4963355;28;20455;-43
2023/12/16 03:05:07;;;;;;;186.70;60.27;;;;;;;;;;4971597;28;20413;-42
2023/12/16 03:07:33;;;;;;;188.32;62.60;;;;;;;;;;4955971;28;20415;-43
2023/12/16 03:09:59;;;;;;;186.73;62.87;;;;;;;;;;4974497;28;20208;-42
2023/12/16 03:12:25;;;;;;;183.38;61.92;;;;;;;;;;4960119;28;20421;-43
2023/12/16 03:14:51;;;;;;;182.60;62.20;;;;;;;;;;4966645;28;20665;-42
2023/12/16 03:17:17;;;;;;;183.90;61.90;;;;;;;;;;4967919;28;20213;-43
2023/12/16 03:19:43;;;;;;;183.27;62.15;;;;;;;;;;4958728;28;20471;-43
2023/12/16 03:22:09;;;;;;;181.90;61.30;;;;;;;;;;4975257;28;20662;-43
2023/12/16 03:24:35;;;;;;;130.27;48.97;;;;;;;;;;4956334;28;20869;-42
2023/12/16 03:27:01;;;;;;;137.60;51.07;;;;;;;;;;4970093;28;20213;-43
2023/12/16 03:29:28;;;;;;;180.27;62.10;;;;;;;;;;4963896;28;20432;-43
2023/12/16 03:31:55;;;;;;;181.38;62.25;;;;;;;;;;4961986;28;20425;-43
2023/12/16 03:34:21;;;;;;;175.48;62.40;;;;;;;;;;4972154;28;20179;-43
2023/12/16 03:36:47;;;;;;;128.10;49.47;;;;;;;;;;4955340;28;20191;-43
2023/12/16 03:39:13;;;;;;;122.47;48.33;;;;;;;;;;4973031;28;20464;-42
2023/12/16 03:41:39;;;;;;;166.07;60.65;;;;;;;;;;4960151;28;20433;-42
2023/12/16 03:44:05;;;;;;;124.47;48.78;;;;;;;;;;4965317;28;20373;-43
2023/12/16 03:46:31;;;;;;;155.00;58.50;;;;;;;;;;4968313;28;20182;-43
2023/12/16 03:48:57;;;;;;;131.03;52.03;;;;;;;;;;4957081;28;20897;-43
2023/12/16 03:51:23;;;;;;;168.23;59.70;;;;;;;;;;4974569;28;20433;-43
2023/12/16 03:53:49;;;;;;;125.47;49.97;;;;;;;;;;4956512;28;20507;-43
2023/12/16 03:56:16;;;;;;;120.85;48.50;;;;;;;;;;4968697;28;20228;-43
2023/12/16 03:58:42;;;;;;;127.15;50.22;;;;;;;;;;4973576;28;20177;-43
2023/12/16 04:01:13;;;;;;;160.00;58.97;;;;;;;;;;4968282;28;20206;-43
2023/12/16 04:03:40;;;;;;;123.60;48.92;;;;;;;;;;4957361;28;20185;-43
2023/12/16 04:06:10;;;;;;;127.95;49.95;;;;;;;;;;4974443;28;20290;-43
2023/12/16 04:08:36;;;;;;;128.57;50.05;;;;;;;;;;4955113;28;20181;-43
2023/12/16 04:11:02;;;;;;;127.05;48.92;;;;;;;;;;4969204;28;20244;-43
2023/12/16 04:13:28;;;;;;;128.07;48.13;;;;;;;;;;4963432;28;20247;-43
2023/12/16 04:15:54;;;;;;;166.63;59.00;;;;;;;;;;4961151;28;20426;-43
2023/12/16 04:18:20;;;;;;;132.53;52.00;;;;;;;;;;4971047;28;20414;-43
2023/12/16 04:20:46;;;;;;;117.20;48.33;;;;;;;;;;4954475;28;20461;-43
2023/12/16 04:23:12;;;;;;;118.90;47.87;;;;;;;;;;4972238;28;20412;-43
2023/12/16 04:25:38;;;;;;;119.73;47.40;;;;;;;;;;4959666;28;20413;-43
2023/12/16 04:28:03;;;;;;;118.00;47.77;;;;;;;;;;4964346;28;20444;-43
2023/12/16 04:30:29;;;;;;;155.95;60.60;;;;;;;;;;4967531;28;20445;-43
2023/12/16 04:32:55;;;;;;;117.37;48.17;;;;;;;;;;4956252;28;20537;-43
2023/12/16 04:35:21;;;;;;;116.93;48.10;;;;;;;;;;4973772;28;20401;-43
2023/12/16 04:37:47;;;;;;;114.83;47.07;;;;;;;;;;4956099;28;20781;-43
2023/12/16 04:40:13;;;;;;;121.13;48.07;;;;;;;;;;4966718;28;20464;-43
2023/12/16 04:42:41;;;;;;;127.90;48.67;;;;;;;;;;4964133;28;20417;-43
2023/12/16 04:45:08;;;;;;;127.95;47.92;;;;;;;;;;4959710;28;20180;-43
2023/12/16 04:47:36;;;;;;;127.97;52.60;;;;;;;;;;4971086;28;20169;-43
2023/12/16 04:50:01;;;;;;;128.60;49.45;;;;;;;;;;4954238;28;20280;-43
2023/12/16 04:52:27;;;;;;;126.57;48.33;;;;;;;;;;4971307;28;20259;-43
2023/12/16 04:54:53;;;;;;;127.40;50.97;;;;;;;;;;4961578;28;20456;-44
2023/12/16 04:57:19;;;;;;;126.20;48.57;;;;;;;;;;4972821;28;20424;-43
2023/12/16 04:59:46;;;;;;;125.00;50.70;;;;;;;;;;4967509;28;20465;-43
2023/12/16 05:02:12;;;;;;;153.90;59.80;;;;;;;;;;4955072;28;20424;-43
2023/12/16 05:04:38;;;;;;;113.55;47.88;;;;;;;;;;4973200;28;20180;-43
2023/12/16 05:07:04;;;;;;;115.57;47.33;;;;;;;;;;4956336;28;20274;-43
2023/12/16 05:09:30;;;;;;;111.10;48.22;;;;;;;;;;4966266;28;20924;-43
2023/12/16 05:11:56;;;;;;;110.23;46.97;;;;;;;;;;4964244;28;20199;-42
2023/12/16 05:14:22;;;;;;;112.88;49.05;;;;;;;;;;4958640;28;20913;-43
2023/12/16 05:16:48;;;;;;;113.43;49.30;;;;;;;;;;4971988;28;20219;-42
2023/12/16 05:19:14;;;;;;;114.38;49.83;;;;;;;;;;4953538;28;20823;-43
2023/12/16 05:21:41;;;;;;;114.45;48.35;;;;;;;;;;4970027;28;20542;-43
2023/12/16 05:24:06;;;;;;;116.20;48.92;;;;;;;;;;4960299;28;20184;-43
2023/12/16 05:26:32;;;;;;;112.30;47.70;;;;;;;;;;4961990;28;20172;-43
2023/12/16 05:28:58;;;;;;;115.20;47.30;;;;;;;;;;4968144;28;20452;-43
2023/12/16 05:31:24;;;;;;;113.37;49.70;;;;;;;;;;4953792;28;20437;-43
2023/12/16 05:33:50;;;;;;;113.43;48.10;;;;;;;;;;4972938;28;20417;-43
2023/12/16 05:36:16;;;;;;;111.28;50.65;;;;;;;;;;4956879;28;20499;-42
2023/12/16 05:38:42;;;;;;;118.27;51.80;;;;;;;;;;4965038;28;20199;-43
2023/12/16 05:41:08;;;;;;;105.90;48.37;;;;;;;;;;4964442;28;20444;-43
2023/12/16 05:43:34;;;;;;;100.43;46.83;;;;;;;;;;4957135;28;20420;-43
2023/12/16 05:46:00;;;;;;;101.13;45.70;;;;;;;;;;4972733;28;20437;-43
2023/12/16 05:48:26;;;;;;;103.40;49.83;;;;;;;;;;4953424;28;20209;-42
2023/12/16 05:50:52;;;;;;;95.97;46.80;;;;;;;;;;4968527;28;20236;-43
2023/12/16 05:53:18;;;;;;;86.87;45.23;;;;;;;;;;4961244;28;20421;-43
2023/12/16 05:55:47;;;;;;;40.53;36.27;;;;;;;;;;4961577;28;20409;-43
2023/12/16 05:58:13;;;;;;;96.63;46.70;;;;;;;;;;4968609;28;20421;-43
2023/12/16 06:00:39;;;;;;;92.45;44.58;;;;;;;;;;4954843;28;20276;-43
2023/12/16 06:03:05;;;;;;;47.43;39.37;;;;;;;;;;4975964;28;20276;-42
2023/12/16 06:05:31;;;;;;;113.50;47.90;;;;;;;;;;4960950;28;20409;-42
2023/12/16 06:07:57;;;;;;;112.50;45.70;;;;;;;;;;4967845;28;20415;-43
2023/12/16 06:10:23;;;;;;;117.10;50.57;;;;;;;;;;4968613;28;20464;-42
2023/12/16 06:12:49;;;;;;;112.00;46.77;;;;;;;;;;4959813;28;20419;-43
2023/12/16 06:15:15;;;;;;;108.47;46.47;;;;;;;;;;4976310;28;20831;-42
2023/12/16 06:17:41;;;;;;;106.47;45.85;;;;;;;;;;4957579;28;20697;-42
2023/12/16 06:20:07;;;;;;;111.23;48.07;;;;;;;;;;4970716;28;20249;-42
2023/12/16 06:22:33;;;;;;;107.32;47.47;;;;;;;;;;4965427;28;20420;-42
2023/12/16 06:24:59;;;;;;;109.38;48.05;;;;;;;;;;4963001;28;20275;-43
2023/12/16 06:27:25;;;;;;;105.78;46.97;;;;;;;;;;4973064;28;20263;-43
2023/12/16 06:29:51;;;;;;;111.17;48.33;;;;;;;;;;4956361;28;20679;-43
2023/12/16 06:32:17;;;;;;;142.60;57.03;;;;;;;;;;4974446;28;20417;-42
2023/12/16 06:34:43;;;;;;;110.90;48.10;;;;;;;;;;4961457;28;20459;-42
2023/12/16 06:37:09;;;;;;;108.30;48.20;;;;;;;;;;4966395;28;20495;-42
2023/12/16 06:39:35;;;;;;;109.40;50.97;;;;;;;;;;4968702;28;20463;-43
2023/12/16 06:42:00;;;;;;;105.07;48.50;;;;;;;;;;4958113;28;20436;-42
2023/12/16 06:44:26;;;;;;;85.33;43.93;;;;;;;;;;4975499;28;20425;-43
2023/12/16 06:46:52;;;;;;;107.23;48.57;;;;;;;;;;4958099;28;20413;-42
2023/12/16 06:49:18;;;;;;;105.33;47.47;;;;;;;;;;4969269;28;20419;-43
2023/12/16 06:51:44;;;;;;;132.87;50.20;;;;;;;;;;4965690;28;20479;-43
2023/12/16 06:54:10;;;;;;;122.90;48.87;;;;;;;;;;4961366;28;20424;-43
2023/12/16 06:56:36;;;;;;;163.77;59.97;;;;;;;;;;4974877;28;20473;-43
2023/12/16 06:59:02;;;;;;;125.20;49.70;;;;;;;;;;4975268;28;20483;-42
2023/12/16 07:01:28;;;;;;;124.53;47.65;;;;;;;;;;4957992;28;20211;-43
2023/12/16 07:03:54;;;;;;;121.73;50.03;;;;;;;;;;4968702;28;20192;-43
2023/12/16 07:06:20;;;;;;;120.53;47.73;;;;;;;;;;4966107;28;20414;-43
2023/12/16 07:08:46;;;;;;;123.53;49.27;;;;;;;;;;4960319;28;20465;-42
2023/12/16 07:11:13;;;;;;;162.35;60.97;;;;;;;;;;4973524;28;20475;-42
2023/12/16 07:13:39;;;;;;;124.88;50.08;;;;;;;;;;4955879;28;20249;-42
2023/12/16 07:16:05;;;;;;;161.18;58.50;;;;;;;;;;4972118;28;20177;-43
2023/12/16 07:18:31;;;;;;;121.32;51.45;;;;;;;;;;4962408;28;20496;-42
2023/12/16 07:20:57;;;;;;;116.17;48.77;;;;;;;;;;4963861;28;20621;-43
2023/12/16 07:23:24;;;;;;;115.10;48.47;;;;;;;;;;4970226;28;20836;-42
2023/12/16 07:25:53;;;;;;;118.95;48.33;;;;;;;;;;4955916;28;20663;-43
2023/12/16 07:28:21;;;;;;;117.05;50.10;;;;;;;;;;4974581;28;20180;-43
2023/12/16 07:30:47;;;;;;;113.38;49.20;;;;;;;;;;4957946;28;20609;-43
2023/12/16 07:33:13;;;;;;;116.07;47.53;;;;;;;;;;4967940;28;20179;-42
2023/12/16 07:35:40;;;;;;;116.50;47.08;;;;;;;;;;4966201;28;20425;-43
2023/12/16 07:38:08;;;;;;;119.38;48.88;;;;;;;;;;4960035;28;20225;-42
2023/12/16 07:40:34;;;;;;;119.95;48.85;;;;;;;;;;4973431;28;20291;-43
2023/12/16 07:43:01;;;;;;;116.43;48.90;;;;;;;;;;4955218;28;20247;-43
2023/12/16 07:45:27;;;;;;;152.23;58.10;;;;;;;;;;4971778;28;20668;-43
2023/12/16 07:47:53;;;;;;;120.90;47.73;;;;;;;;;;4961720;28;20921;-43
2023/12/16 07:50:20;;;;;;;118.57;48.23;;;;;;;;;;4963420;28;20945;-42
2023/12/16 07:52:46;;;;;;;115.70;47.70;;;;;;;;;;4969396;28;20422;-43
2023/12/16 07:55:12;;;;;;;113.22;47.70;;;;;;;;;;4958512;28;20244;-43
2023/12/16 07:57:39;;;;;;;149.20;58.80;;;;;;;;;;4968239;28;20190;-42
2023/12/16 08:00:05;;;;;;;142.77;58.60;;;;;;;;;;4965380;28;20219;-42
2023/12/16 08:02:31;;;;;;;106.70;49.30;;;;;;;;;;4973367;28;20192;-43
2023/12/16 08:04:57;;;;;;;107.43;47.77;;;;;;;;;;4965345;28;20184;-43
2023/12/16 08:07:23;;;;;;;126.85;55.45;;;;;;;;;;4959150;28;20416;-42
2023/12/16 08:09:49;;;;;;;102.35;47.33;;;;;;;;;;4972938;28;20277;-42
2023/12/16 08:12:15;;;;;;;102.30;46.40;;;;;;;;;;4953862;28;20656;-42
2023/12/16 08:14:41;;;;;;;107.68;50.13;;;;;;;;;;4968569;28;20189;-43
2023/12/16 08:17:07;;;;;;;104.50;46.47;;;;;;;;;;4961913;28;20232;-43
2023/12/16 08:19:33;;;;;;;100.93;47.47;;;;;;;;;;4962209;28;21000;-43
2023/12/16 08:22:00;;;;;;;106.32;48.75;;;;;;;;;;4969500;28;20405;-43
2023/12/16 08:24:26;;;;;;;102.75;47.95;;;;;;;;;;4953659;28;20209;-43
2023/12/16 08:26:52;;;;;;;85.75;44.85;;;;;;;;;;4973738;28;20265;-43
2023/12/16 08:29:18;;;;;;;64.17;41.70;;;;;;;;;;4957653;28;20189;-43
2023/12/16 08:31:45;;;;;;;99.40;46.60;;;;;;;;;;4965671;28;20428;-42
2023/12/16 08:34:11;;;;;;;61.20;41.63;;;;;;;;;;4965881;28;20619;-42
2023/12/16 08:36:37;;;;;;;80.93;44.87;;;;;;;;;;4958123;28;20297;-43
2023/12/16 08:39:03;;;;;;;68.17;42.13;;;;;;;;;;4973132;28;20960;-43
2023/12/16 08:41:29;;;;;;;72.37;44.17;;;;;;;;;;4954035;28;20425;-43
2023/12/16 08:43:54;;;;;;;93.73;45.47;;;;;;;;;;4969093;28;20484;-42
2023/12/16 08:46:23;;;;;;;194.57;63.27;;;;;;;;;;4962209;28;20424;-42
2023/12/16 08:48:49;;;;;;;52.83;42.15;;;;;;;;;;4961176;28;20502;-43
2023/12/16 08:51:21;;;;;;;58.58;40.83;;;;;;;;;;4969916;28;20204;-43
2023/12/16 08:53:47;;;;;;;79.18;45.70;;;;;;;;;;4954192;28;20542;-43
2023/12/16 08:56:14;;;;;;;85.35;44.05;;;;;;;;;;4973252;28;20173;-43
2023/12/16 08:58:40;;;;;;;96.80;47.10;;;;;;;;;;4972452;28;20174;-42
2023/12/16 09:01:06;;;;;;;95.07;47.05;;;;;;;;;;4961377;28;20582;-43
2023/12/16 09:03:32;;;;;;;93.45;46.30;;;;;;;;;;4961697;28;20191;-43
2023/12/16 09:05:58;;;;;;;85.17;46.40;;;;;;;;;;4969190;28;20265;-42
2023/12/16 09:08:24;;;;;;;115.83;56.47;;;;;;;;;;4953598;28;20418;-43
2023/12/16 09:10:50;;;;;;;80.90;47.03;;;;;;;;;;4972971;28;20428;-43
2023/12/16 09:13:16;;;;;;;79.88;46.85;;;;;;;;;;4957878;28;20185;-43
2023/12/16 09:15:42;;;;;;;81.97;44.80;;;;;;;;;;4964987;28;20173;-42
2023/12/16 09:18:08;;;;;;;88.13;48.77;;;;;;;;;;4965630;28;20413;-42
2023/12/16 09:20:34;;;;;;;80.87;45.87;;;;;;;;;;4956699;28;20896;-42
2023/12/16 09:23:00;;;;;;;90.47;48.00;;;;;;;;;;4973122;28;20459;-42
2023/12/16 09:25:26;;;;;;;76.47;46.97;;;;;;;;;;4954204;28;20430;-42
2023/12/16 09:27:52;;;;;;;82.10;48.00;;;;;;;;;;4968586;28;20818;-43
2023/12/16 09:30:19;;;;;;;58.60;45.27;;;;;;;;;;4961894;28;20908;-42
2023/12/16 09:32:45;;;;;;;54.05;44.05;;;;;;;;;;4960441;28;20768;-42
2023/12/16 09:35:11;;;;;;;48.60;43.53;;;;;;;;;;4972639;28;20246;-43
2023/12/16 09:37:37;;;;;;;51.67;45.47;;;;;;;;;;4957612;28;20172;-43
2023/12/16 09:40:03;;;;;;;63.07;47.03;;;;;;;;;;4975024;28;20308;-43
2023/12/16 09:42:29;;;;;;;54.90;44.55;;;;;;;;;;4962376;28;20921;-42
2023/12/16 09:44:58;;;;;;;67.10;46.80;;;;;;;;;;4967674;28;20182;-43
2023/12/16 09:47:25;;;;;;;63.45;46.92;;;;;;;;;;4969842;28;20182;-43
2023/12/16 09:49:52;;;;;;;79.70;47.95;;;;;;;;;;4960064;28;20569;-42
2023/12/16 09:52:18;;;;;;;78.47;46.40;;;;;;;;;;4976580;28;20193;-43
2023/12/16 09:54:44;;;;;;;99.33;55.20;;;;;;;;;;4958440;28;20665;-42
2023/12/16 09:57:11;;;;;;;83.47;46.50;;;;;;;;;;4976103;28;20424;-42
2023/12/16 09:59:38;;;;;;;78.32;46.95;;;;;;;;;;4965403;28;20816;-42
2023/12/16 10:02:07;;;;;;;75.93;46.08;;;;;;;;;;4963723;28;20661;-43
2023/12/16 10:04:35;;;;;;;69.82;45.83;;;;;;;;;;4973070;28;20209;-42
2023/12/16 10:07:01;;;;;;;61.50;45.10;;;;;;;;;;4957501;28;20651;-43
2023/12/16 10:09:27;;;;;;;60.78;43.58;;;;;;;;;;4975407;28;20182;-42
2023/12/16 10:11:56;;;;;;;71.03;46.22;;;;;;;;;;4961608;28;20231;-42
2023/12/16 10:14:22;;;;;;;58.25;46.03;;;;;;;;;;4968064;28;20181;-42
2023/12/16 10:16:48;;;;;;;61.10;47.50;;;;;;;;;;4968767;28;20194;-42
2023/12/16 10:19:14;;;;;;;60.88;46.85;;;;;;;;;;4959547;28;20950;-43
2023/12/16 10:21:42;;;;;;;67.23;43.80;;;;;;;;;;4976097;28;20260;-42
2023/12/16 10:24:09;;;;;;;69.53;44.95;;;;;;;;;;4957040;28;20935;-43
2023/12/16 10:26:41;;;;;;;77.93;46.28;;;;;;;;;;4971767;28;20174;-42
2023/12/16 10:29:08;;;;;;;73.72;47.55;;;;;;;;;;4963804;28;20178;-43
2023/12/16 10:31:35;;;;;;;76.40;46.95;;;;;;;;;;4964461;28;20206;-44
2023/12/16 10:34:01;;;;;;;65.15;45.05;;;;;;;;;;4971919;28;20182;-43
2023/12/16 10:36:29;;;;;;;78.45;45.95;;;;;;;;;;4956900;28;20250;-43
2023/12/16 10:38:55;;;;;;;85.63;50.33;;;;;;;;;;4975479;28;20170;-44
2023/12/16 10:41:24;;;;;;;76.97;48.17;;;;;;;;;;4959960;28;20359;-43
2023/12/16 10:43:49;;;;;;;81.97;46.88;;;;;;;;;;4968251;28;20886;-43
2023/12/16 10:46:20;;;;;;;80.67;45.50;;;;;;;;;;4966462;28;20213;-42
2023/12/16 10:48:50;;;;;;;77.93;45.78;;;;;;;;;;4960735;28;20484;-42
2023/12/16 10:51:17;;;;;;;84.93;47.03;;;;;;;;;;4974119;28;20186;-43
2023/12/16 10:53:45;;;;;;;83.57;48.47;;;;;;;;;;4956306;28;20168;-43
2023/12/16 10:56:21;;;;;;;82.63;46.90;;;;;;;;;;4973719;28;20537;-42
2023/12/16 10:58:49;;;;;;;75.53;46.63;;;;;;;;;;4974591;28;20261;-42
2023/12/16 11:01:23;;;;;;;69.78;44.30;;;;;;;;;;4964412;28;20297;-43
2023/12/16 11:03:55;;;;;;;56.85;42.70;;;;;;;;;;4963721;28;20189;-42
2023/12/16 11:06:28;;;;;;;86.13;61.35;;;;;;;;;;4971055;28;20175;-43
2023/12/16 11:08:54;;;;;;;66.75;45.35;;;;;;;;;;4973127;28;20290;-42
2023/12/16 11:11:21;;;;;;;83.90;46.38;;;;;;;;;;4955775;28;20209;-43
2023/12/16 11:13:50;;;;;;;81.28;46.25;;;;;;;;;;4972659;28;20170;-42
2023/12/16 11:16:20;;;;;;;84.20;46.78;;;;;;;;;;4961486;28;20187;-42
2023/12/16 11:18:49;;;;;;;89.82;46.60;;;;;;;;;;4965398;28;20580;-42
2023/12/16 11:21:17;;;;;;;92.00;46.63;;;;;;;;;;4968000;28;20572;-43
2023/12/16 11:23:46;;;;;;;89.45;47.53;;;;;;;;;;4958350;28;20209;-43
2023/12/16 11:26:12;;;;;;;124.95;56.15;;;;;;;;;;4974794;28;20185;-42
2023/12/16 11:28:38;;;;;;;97.77;48.53;;;;;;;;;;4955617;28;20635;-42
2023/12/16 11:31:04;;;;;;;103.88;47.20;;;;;;;;;;4969885;28;20431;-42
2023/12/16 11:33:46;;;;;;;95.40;48.40;;;;;;;;;;4963826;28;20182;-43
2023/12/16 11:36:14;;;;;;;93.15;48.30;;;;;;;;;;4963848;28;20420;-42
2023/12/16 11:38:44;;;;;;;95.63;46.88;;;;;;;;;;4969032;28;20175;-42
2023/12/16 11:41:28;;;;;;;97.75;47.78;;;;;;;;;;4956906;28;20198;-42
2023/12/16 11:43:55;;;;;;;93.10;46.25;;;;;;;;;;4974155;28;20228;-42
2023/12/16 11:46:41;;;;;;;103.18;46.17;;;;;;;;;;4954968;28;20176;-42
2023/12/16 11:49:10;;;;;;;104.55;47.13;;;;;;;;;;4972919;28;20540;-43
2023/12/16 11:51:38;;;;;;;100.93;46.55;;;;;;;;;;4959373;28;20218;-43
2023/12/16 11:54:04;;;;;;;104.22;47.45;;;;;;;;;;4965725;28;20321;-43
2023/12/16 11:56:30;;;;;;;134.68;57.85;;;;;;;;;;4973467;28;20264;-43
2023/12/16 11:58:59;;;;;;;107.30;50.27;;;;;;;;;;4970319;28;20298;-43
2023/12/16 12:01:25;;;;;;;102.53;46.55;;;;;;;;;;4954684;28;20801;-42
2023/12/16 12:03:52;;;;;;;107.93;48.22;;;;;;;;;;4973464;28;20599;-42
2023/12/16 12:06:19;;;;;;;109.15;48.40;;;;;;;;;;4958998;28;20226;-43
2023/12/16 12:08:46;;;;;;;108.63;46.38;;;;;;;;;;4965325;28;20665;-43
2023/12/16 12:11:12;;;;;;;156.60;58.25;;;;;;;;;;4966510;28;20201;-42
2023/12/16 12:13:38;;;;;;;151.88;57.90;;;;;;;;;;4957599;28;20625;-42
2023/12/16 12:16:05;;;;;;;154.52;57.58;;;;;;;;;;4973821;28;20182;-42
2023/12/16 12:18:31;;;;;;;160.60;63.33;;;;;;;;;;4954690;28;20186;-42
2023/12/16 12:20:57;;;;;;;163.20;59.55;;;;;;;;;;4969028;28;20697;-42
2023/12/16 12:23:23;;;;;;;163.27;61.10;;;;;;;;;;4962677;28;20551;-44
2023/12/16 12:25:56;;;;;;;169.30;61.88;;;;;;;;;;4961593;28;20205;-42
2023/12/16 12:28:22;;;;;;;172.77;68.38;;;;;;;;;;4971076;28;20174;-42
2023/12/16 12:30:48;;;;;;;164.95;61.35;;;;;;;;;;4969870;28;20201;-43
2023/12/16 12:33:14;;;;;;;172.57;64.80;;;;;;;;;;4971701;28;20269;-43
2023/12/16 12:35:40;;;;;;;122.95;49.35;;;;;;;;;;4957287;28;20186;-42
2023/12/16 12:38:06;;;;;;;172.17;63.13;;;;;;;;;;4964998;28;20232;-42
2023/12/16 12:40:32;;;;;;;170.50;62.40;;;;;;;;;;4963742;28;20461;-42
2023/12/16 12:42:59;;;;;;;120.30;47.35;;;;;;;;;;4957084;28;20444;-42
2023/12/16 12:45:31;;;;;;;162.18;59.50;;;;;;;;;;4973309;28;20204;-42
2023/12/16 12:48:10;;;;;;;168.25;60.28;;;;;;;;;;4954031;28;20181;-42
2023/12/16 12:50:36;;;;;;;168.48;62.28;;;;;;;;;;4970961;28;20199;-42
2023/12/16 12:53:14;;;;;;;172.83;61.23;;;;;;;;;;4959737;28;20265;-42
2023/12/16 12:55:43;;;;;;;173.82;60.90;;;;;;;;;;4964551;28;20468;-43
2023/12/16 12:58:09;;;;;;;175.75;63.67;;;;;;;;;;4972741;28;20173;-42
2023/12/16 13:00:35;;;;;;;176.93;60.83;;;;;;;;;;4968190;28;20211;-42
2023/12/16 13:03:01;;;;;;;180.60;60.50;;;;;;;;;;4953719;28;20422;-43
2023/12/16 13:05:27;;;;;;;181.40;60.63;;;;;;;;;;4972386;28;20178;-42
2023/12/16 13:07:53;;;;;;;186.70;62.47;;;;;;;;;;4958069;28;20445;-42
2023/12/16 13:10:19;;;;;;;187.98;61.35;;;;;;;;;;4963646;28;20519;-42
2023/12/16 13:12:45;;;;;;;187.23;60.37;;;;;;;;;;4966039;28;20257;-42
2023/12/16 13:15:13;;;;;;;191.37;61.57;;;;;;;;;;4956458;28;20420;-42
2023/12/16 13:17:39;;;;;;;195.40;64.35;;;;;;;;;;4973004;28;20467;-43
2023/12/16 13:20:06;;;;;;;190.20;61.38;;;;;;;;;;4953875;28;20292;-42
2023/12/16 13:22:34;;;;;;;193.27;62.08;;;;;;;;;;4968038;28;20220;-42
2023/12/16 13:25:00;;;;;;;186.75;59.67;;;;;;;;;;4961981;28;20181;-42
2023/12/16 13:27:26;;;;;;;190.80;60.87;;;;;;;;;;4960269;28;20599;-42
2023/12/16 13:29:53;;;;;;;191.35;62.38;;;;;;;;;;4968869;28;20528;-43
2023/12/16 13:32:19;;;;;;;192.88;61.45;;;;;;;;;;4953570;28;20650;-42
2023/12/16 13:34:45;;;;;;;193.10;62.97;;;;;;;;;;4971802;28;20192;-43
2023/12/16 13:37:11;;;;;;;192.97;62.70;;;;;;;;;;4958265;28;20417;-42
2023/12/16 13:39:37;;;;;;;200.17;66.37;;;;;;;;;;4963330;28;20881;-43
2023/12/16 13:42:03;;;;;;;195.70;61.38;;;;;;;;;;4966920;28;20416;-43
2023/12/16 13:44:29;;;;;;;201.85;65.28;;;;;;;;;;4955869;28;20741;-42
2023/12/16 13:46:55;;;;;;;203.30;63.20;;;;;;;;;;4973009;28;20245;-42
2023/12/16 13:49:21;;;;;;;200.73;61.07;;;;;;;;;;4954331;28;20417;-43
2023/12/16 13:51:47;;;;;;;204.50;60.70;;;;;;;;;;4967285;28;20467;-43
2023/12/16 13:54:13;;;;;;;204.00;60.60;;;;;;;;;;4962622;28;20540;-43
2023/12/16 13:56:39;;;;;;;207.30;61.97;;;;;;;;;;4968376;28;20421;-43
2023/12/16 13:59:05;;;;;;;207.87;61.40;;;;;;;;;;4970135;28;20448;-43
2023/12/16 14:01:31;;;;;;;208.00;59.70;;;;;;;;;;4953164;28;20512;-43
2023/12/16 14:03:57;;;;;;;210.33;61.87;;;;;;;;;;4970423;28;20448;-43
2023/12/16 14:06:23;;;;;;;210.57;60.30;;;;;;;;;;4959066;28;20605;-43